Time;durP1;ratioP1;P1;durP2;ratioP2;P2;SDS_P1;SDS_P2;PMS_P1;PMS_P2;Temp;Humidity;BMP_temperature;BMP_pressure;BME280_temperature;BME280_humidity;BME280_pressure;Samples;Min_cycle;Max_cycle;Signal;HPM_P1;HPM_P2
2022/02/10 00:05:34;;;;;;;2.80;2.50;;;9.60;99.90;;;;;;4998893;28;20881;-58
2022/02/10 00:16:01;;;;;;;3.95;3.55;;;9.50;99.90;;;;;;4999644;28;20138;-58
2022/02/10 00:21:05;;;;;;;3.00;2.40;;;9.50;99.90;;;;;;5001052;28;20144;-59
2022/02/10 00:24:21;;;;;;;2.90;2.47;;;9.50;99.90;;;;;;5000478;28;20084;-58
2022/02/10 00:34:44;;;;;;;2.85;2.55;;;9.40;99.90;;;;;;5000689;28;20132;-58
2022/02/10 00:37:12;;;;;;;2.90;2.55;;;9.40;99.90;;;;;;4997336;28;20188;-58
2022/02/10 00:42:24;;;;;;;2.60;2.20;;;9.40;99.90;;;;;;5001451;28;20137;-58
2022/02/10 00:44:51;;;;;;;2.35;2.05;;;9.40;99.90;;;;;;5000049;28;20049;-59
2022/02/10 00:47:18;;;;;;;3.88;2.88;;;9.30;99.90;;;;;;5000745;28;20050;-59
2022/02/10 00:49:46;;;;;;;2.50;2.30;;;9.30;99.90;;;;;;4999786;28;20136;-58
2022/02/10 00:52:14;;;;;;;3.58;2.25;;;9.40;99.90;;;;;;5000877;28;20167;-58
2022/02/10 00:54:41;;;;;;;2.90;2.50;;;9.40;99.90;;;;;;5004642;28;20695;-58
2022/02/10 00:57:08;;;;;;;2.70;2.33;;;9.40;99.90;;;;;;5002235;28;20121;-58
2022/02/10 01:07:03;;;;;;;4.63;2.78;;;9.40;99.90;;;;;;5001393;28;20152;-58
2022/02/10 01:30:11;;;;;;;5.30;3.63;;;8.70;99.90;;;;;;5002709;28;20584;-58
2022/02/10 01:32:39;;;;;;;3.72;3.28;;;8.70;99.90;;;;;;5007557;28;20080;-58
2022/02/10 01:35:11;;;;;;;4.63;4.13;;;8.70;99.90;;;;;;5006430;28;20081;-58
2022/02/10 01:37:39;;;;;;;6.47;4.65;;;8.60;99.90;;;;;;5026401;28;20096;-58
2022/02/10 01:40:17;;;;;;;7.55;5.10;;;8.50;99.90;;;;;;5025499;28;20128;-58
2022/02/10 02:04:21;;;;;;;5.88;5.13;;;8.30;99.90;;;;;;4988754;28;20577;-58
2022/02/10 02:06:50;;;;;;;6.22;5.28;;;8.30;99.90;;;;;;4988451;28;20089;-58
2022/02/10 02:09:18;;;;;;;7.03;5.85;;;8.30;99.90;;;;;;4995806;28;20094;-59
2022/02/10 02:11:51;;;;;;;9.23;6.18;;;8.30;99.90;;;;;;5017472;28;20133;-59
2022/02/10 02:14:20;;;;;;;6.85;5.88;;;8.30;99.90;;;;;;4999548;28;20073;-58
2022/02/10 02:16:48;;;;;;;7.25;5.85;;;8.30;99.90;;;;;;4987819;28;20082;-59
2022/02/10 02:19:15;;;;;;;7.20;5.90;;;8.30;99.90;;;;;;4987716;28;20137;-58
2022/02/10 02:21:42;;;;;;;6.55;5.85;;;8.30;99.90;;;;;;4995326;28;20045;-58
2022/02/10 02:24:09;;;;;;;6.45;5.35;;;8.30;99.90;;;;;;5002694;28;20140;-57
2022/02/10 02:26:36;;;;;;;6.07;5.05;;;8.30;99.90;;;;;;5002815;28;20620;-59
2022/02/10 02:29:07;;;;;;;5.57;4.70;;;8.30;99.90;;;;;;5001438;28;20423;-58
2022/02/10 02:31:41;;;;;;;5.47;4.60;;;8.30;99.90;;;;;;5008571;28;20450;-59
2022/02/10 02:40:07;;;;;;;3.95;3.53;;;8.20;99.90;;;;;;5001183;28;20049;-58
2022/02/10 03:05:23;;;;;;;2.83;2.10;;;7.90;99.90;;;;;;5006688;28;20085;-60
2022/02/10 03:07:54;;;;;;;3.05;1.40;;;7.90;99.90;;;;;;5007219;28;20555;-60
2022/02/10 03:12:47;;;;;;;2.20;1.48;;;7.90;99.90;;;;;;5020112;28;20458;-59
2022/02/10 03:15:27;;;;;;;2.22;1.58;;;7.90;99.90;;;;;;5005302;28;20045;-59
2022/02/10 03:18:42;;;;;;;2.97;1.90;;;8.00;99.90;;;;;;5007139;28;20363;-59
2022/02/10 04:02:28;;;;;;;1.65;0.80;;;7.40;99.90;;;;;;5006539;28;20169;-59
2022/02/10 04:23:10;;;;;;;2.53;1.10;;;6.90;99.90;;;;;;5004958;28;20096;-57
2022/02/10 04:39:54;;;;;;;1.92;0.70;;;6.70;99.90;;;;;;5003903;28;20042;-58
2022/02/10 05:34:49;;;;;;;1.83;0.80;;;6.70;99.90;;;;;;5006226;28;20128;-58
2022/02/10 05:37:18;;;;;;;1.10;0.70;;;6.70;99.90;;;;;;4996584;28;20454;-58
2022/02/10 05:39:48;;;;;;;1.27;0.70;;;6.70;99.90;;;;;;4989796;28;20141;-57
2022/02/10 05:42:44;;;;;;;1.23;0.60;;;6.70;99.90;;;;;;4990237;28;20497;-58
2022/02/10 05:45:18;;;;;;;1.80;0.70;;;6.80;99.90;;;;;;4987341;28;20142;-58
2022/02/10 05:53:49;;;;;;;1.08;0.70;;;6.70;99.90;;;;;;5003189;28;20470;-58
2022/02/10 05:58:33;;;;;;;2.15;0.90;;;6.70;99.90;;;;;;5004856;28;20608;-59
2022/02/10 06:51:18;;;;;;;3.03;0.98;;;6.80;99.90;;;;;;4998691;28;20911;-59
2022/02/10 07:10:55;;;;;;;1.83;0.80;;;6.80;99.90;;;;;;4992882;28;20046;-59
2022/02/10 07:49:35;;;;;;;3.25;1.15;;;6.80;99.90;;;;;;4997564;28;20505;-59
2022/02/10 07:57:09;;;;;;;1.67;0.98;;;6.80;99.90;;;;;;4998976;28;20508;-59
2022/02/10 08:27:50;;;;;;;4.25;2.17;;;7.00;99.90;;;;;;4983981;28;20133;-58
2022/02/10 08:59:12;;;;;;;3.30;1.75;;;7.20;99.90;;;;;;4998160;28;20152;-59
2022/02/10 09:07:32;;;;;;;2.58;1.23;;;7.10;99.90;;;;;;4983604;28;20620;-60
2022/02/10 09:09:48;;;;;;;4.53;2.22;;;7.20;99.90;;;;;;4993136;28;20313;-59
2022/02/10 09:12:38;;;;;;;3.83;1.83;;;7.30;99.90;;;;;;4999134;28;20160;-60
2022/02/10 09:21:03;;;;;;;6.70;1.70;;;7.30;99.90;;;;;;4998219;28;20173;-60
2022/02/10 09:24:43;;;;;;;4.18;1.80;;;7.30;99.90;;;;;;5006206;28;20318;-61
2022/02/10 09:27:16;;;;;;;4.90;1.52;;;7.40;99.90;;;;;;5003520;28;20537;-60
2022/02/10 09:52:04;;;;;;;2.40;1.60;;;8.00;99.90;;;;;;5001931;28;20444;-60
2022/02/10 09:56:20;;;;;;;3.55;1.45;;;8.00;99.90;;;;;;4999222;28;20133;-59
2022/02/10 10:04:10;;;;;;;2.85;1.65;;;8.10;99.90;;;;;;5001150;28;20611;-60
2022/02/10 10:06:52;;;;;;;4.22;1.27;;;8.10;99.90;;;;;;5000690;28;20096;-59
2022/02/10 10:09:44;;;;;;;4.38;1.20;;;8.00;99.90;;;;;;5000443;28;20172;-60
2022/02/10 10:17:25;;;;;;;3.22;1.40;;;8.10;99.90;;;;;;5000833;28;20557;-59
2022/02/10 10:23:39;;;;;;;3.75;1.15;;;8.30;99.90;;;;;;5000027;28;20149;-60
2022/02/10 10:50:32;;;;;;;6.07;1.42;;;8.20;99.90;;;;;;4992996;28;20107;-60
2022/02/10 10:55:50;;;;;;;1.83;0.80;;;8.20;99.90;;;;;;4981289;28;20016;-59
2022/02/10 10:58:33;;;;;;;3.38;1.20;;;8.20;99.90;;;;;;4984561;28;20698;-60
2022/02/10 11:47:22;;;;;;;2.88;1.10;;;9.20;99.90;;;;;;4992631;28;20111;-59
2022/02/10 12:36:05;;;;;;;1.88;1.10;;;9.10;99.90;;;;;;4997074;28;20188;-56
2022/02/10 14:13:34;;;;;;;3.60;1.10;;;9.00;99.90;;;;;;4999084;28;20153;-59
2022/02/10 14:16:13;;;;;;;4.93;1.80;;;8.90;99.90;;;;;;4988677;28;20458;-60
2022/02/10 14:18:45;;;;;;;4.88;1.42;;;8.90;99.90;;;;;;4980674;28;20173;-59
2022/02/10 14:21:20;;;;;;;2.75;1.10;;;8.80;99.90;;;;;;4987105;28;21564;-60
2022/02/10 14:28:56;;;;;;;5.75;1.50;;;8.60;99.90;;;;;;4985283;28;20169;-60
2022/02/10 14:31:23;;;;;;;6.15;1.40;;;8.70;99.90;;;;;;4995569;28;20498;-60
2022/02/10 14:33:51;;;;;;;2.97;0.85;;;8.70;99.90;;;;;;4992581;28;20515;-60
2022/02/10 14:36:25;;;;;;;2.95;0.80;;;8.80;99.90;;;;;;4986901;28;20088;-59
2022/02/10 14:39:21;;;;;;;2.22;0.80;;;8.90;99.90;;;;;;4989560;28;20054;-60
2022/02/10 15:21:11;;;;;;;3.08;1.17;;;9.00;99.90;;;;;;4982360;28;20297;-60
2022/02/10 16:15:07;;;;;;;3.28;1.50;;;9.20;99.90;;;;;;4988869;28;20153;-59
2022/02/10 16:17:34;;;;;;;2.78;1.17;;;9.20;99.90;;;;;;4979307;28;20633;-59
2022/02/10 16:20:07;;;;;;;8.02;1.60;;;9.00;99.90;;;;;;4983912;28;20510;-59
2022/02/10 16:22:47;;;;;;;4.78;0.90;;;8.70;99.90;;;;;;4997607;28;20152;-59
2022/02/10 16:25:17;;;;;;;3.80;1.73;;;8.50;99.90;;;;;;4997460;28;20140;-59
2022/02/10 16:27:50;;;;;;;7.82;1.45;;;8.30;99.90;;;;;;4998992;28;20136;-59
2022/02/10 16:30:18;;;;;;;3.85;1.55;;;8.30;99.90;;;;;;4997741;28;20141;-59
2022/02/10 16:32:50;;;;;;;3.08;1.25;;;8.10;99.90;;;;;;4998818;28;20474;-59
2022/02/10 16:35:25;;;;;;;3.65;1.60;;;8.00;99.90;;;;;;4994528;28;20386;-59
2022/02/10 16:37:57;;;;;;;4.32;1.25;;;7.90;99.90;;;;;;4998946;28;20054;-59
2022/02/10 16:40:28;;;;;;;3.53;1.45;;;7.80;99.90;;;;;;4998240;28;20093;-60
2022/02/10 16:43:00;;;;;;;3.22;1.35;;;7.70;99.90;;;;;;4999174;28;20162;-59
2022/02/10 16:45:32;;;;;;;3.95;1.20;;;7.70;99.90;;;;;;4997430;28;20570;-59
2022/02/10 16:48:04;;;;;;;2.42;1.10;;;7.70;99.90;;;;;;4998583;28;20118;-59
2022/02/10 16:50:36;;;;;;;2.92;1.08;;;7.70;99.90;;;;;;4997957;28;20089;-60
2022/02/10 16:53:10;;;;;;;3.33;1.20;;;7.70;99.90;;;;;;4998679;28;20090;-59
2022/02/10 16:56:00;;;;;;;4.03;1.60;;;7.70;99.90;;;;;;4998685;28;20050;-59
2022/02/10 17:17:46;;;;;;;3.90;1.55;;;7.40;99.90;;;;;;4984084;28;20909;-59
2022/02/10 17:20:39;;;;;;;6.60;2.35;;;7.30;99.90;;;;;;5001118;28;20130;-59
2022/02/10 17:26:04;;;;;;;3.70;1.58;;;7.20;99.90;;;;;;5002224;28;20469;-60
2022/02/10 17:28:30;;;;;;;3.08;1.00;;;7.10;99.90;;;;;;5000446;28;20498;-58
2022/02/10 17:33:39;;;;;;;2.72;1.33;;;7.10;99.90;;;;;;5002067;28;20273;-59
2022/02/10 17:36:26;;;;;;;3.03;1.25;;;7.10;99.90;;;;;;4999888;28;20133;-59
2022/02/10 17:42:10;;;;;;;4.28;1.20;;;7.00;99.90;;;;;;5001939;28;20106;-59
2022/02/10 17:44:52;;;;;;;3.50;1.45;;;7.00;99.90;;;;;;4999908;28;20050;-59
2022/02/10 17:53:00;;;;;;;2.88;1.20;;;6.90;99.90;;;;;;4992951;28;20077;-59
2022/02/10 17:55:27;;;;;;;2.72;0.90;;;6.90;99.90;;;;;;4990467;28;20064;-60
2022/02/10 17:57:54;;;;;;;2.83;1.42;;;6.90;99.90;;;;;;4992333;28;20129;-60
2022/02/10 18:00:23;;;;;;;4.05;1.40;;;6.80;99.90;;;;;;4990552;28;20065;-59
2022/02/10 18:02:51;;;;;;;3.15;1.15;;;6.80;99.90;;;;;;4992575;28;20064;-58
2022/02/10 18:08:06;;;;;;;2.45;0.95;;;6.80;99.90;;;;;;4992759;28;20603;-59
2022/02/10 18:15:51;;;;;;;2.92;1.40;;;6.60;99.90;;;;;;4993554;28;20695;-58
2022/02/10 18:18:25;;;;;;;4.78;0.93;;;6.60;99.90;;;;;;4990584;28;20078;-59
2022/02/10 18:21:01;;;;;;;3.15;1.00;;;6.60;99.90;;;;;;4992922;28;20081;-59
2022/02/10 18:23:36;;;;;;;2.60;1.10;;;6.60;99.90;;;;;;4995545;28;20240;-59
2022/02/10 18:26:13;;;;;;;3.42;1.50;;;6.60;99.90;;;;;;4992801;28;20049;-59
2022/02/10 18:28:57;;;;;;;2.33;0.90;;;6.60;99.90;;;;;;4996257;28;20061;-59
2022/02/10 18:34:23;;;;;;;5.75;1.67;;;6.50;99.90;;;;;;5006109;28;20430;-59
2022/02/10 19:01:46;;;;;;;5.65;1.70;;;6.60;99.90;;;;;;4990873;28;20108;-58
2022/02/10 19:09:41;;;;;;;4.75;2.05;;;6.50;99.90;;;;;;4992088;28;20129;-57
2022/02/10 19:12:27;;;;;;;5.53;1.60;;;6.40;99.90;;;;;;4990457;28;20194;-59
2022/02/10 19:15:08;;;;;;;4.47;1.35;;;6.40;99.90;;;;;;4990118;28;20052;-59
2022/02/10 19:17:36;;;;;;;5.07;1.48;;;6.30;99.90;;;;;;4998862;28;20169;-56
2022/02/10 19:20:04;;;;;;;4.40;1.20;;;6.20;99.90;;;;;;4987505;28;20139;-57
2022/02/10 19:22:31;;;;;;;4.47;2.00;;;6.20;99.90;;;;;;4988151;28;20061;-59
2022/02/10 19:24:58;;;;;;;4.72;1.70;;;6.10;99.90;;;;;;4994588;28;20056;-58
2022/02/10 19:27:25;;;;;;;4.50;2.58;;;6.10;99.90;;;;;;4999223;28;20112;-58
2022/02/10 19:29:57;;;;;;;4.20;1.70;;;6.00;99.90;;;;;;4990625;28;20141;-58
2022/02/10 19:32:27;;;;;;;3.42;1.40;;;6.00;99.90;;;;;;4991461;28;20541;-59
2022/02/10 19:34:57;;;;;;;3.85;1.70;;;5.90;99.90;;;;;;5003593;28;20050;-56
2022/02/10 19:37:27;;;;;;;3.85;1.70;;;5.90;99.90;;;;;;5011486;28;20057;-59
2022/02/10 19:39:59;;;;;;;4.78;1.63;;;5.90;99.90;;;;;;5018794;28;20491;-57
2022/02/10 19:42:28;;;;;;;3.28;1.30;;;5.90;99.90;;;;;;5000011;28;20434;-59
2022/02/10 19:44:59;;;;;;;3.03;1.20;;;5.80;99.90;;;;;;4993678;28;20157;-58
2022/02/10 19:47:27;;;;;;;3.72;1.58;;;5.80;99.90;;;;;;4994256;28;20599;-59
2022/02/10 19:49:54;;;;;;;2.63;1.52;;;5.70;99.90;;;;;;4983748;28;20423;-58
2022/02/10 19:52:21;;;;;;;4.13;1.88;;;5.70;99.90;;;;;;4994435;28;20136;-58
2022/02/10 19:54:51;;;;;;;4.80;1.95;;;5.70;99.90;;;;;;4997955;28;20053;-59
2022/02/10 19:57:20;;;;;;;5.22;2.20;;;5.70;99.90;;;;;;4999214;28;20049;-59
2022/02/10 19:59:47;;;;;;;4.68;2.28;;;5.60;99.90;;;;;;4993891;28;20546;-58
2022/02/10 20:02:21;;;;;;;3.40;1.60;;;5.60;99.90;;;;;;4989644;28;20066;-58
2022/02/10 20:04:55;;;;;;;5.28;2.10;;;5.60;99.90;;;;;;4998784;28;20045;-58
2022/02/10 20:07:23;;;;;;;4.25;1.73;;;5.60;99.90;;;;;;4989764;28;20146;-59
2022/02/10 20:09:51;;;;;;;3.55;1.70;;;5.60;99.90;;;;;;4994723;28;20144;-59
2022/02/10 20:12:18;;;;;;;3.08;1.50;;;5.60;99.90;;;;;;4980317;28;20046;-58
2022/02/10 20:14:50;;;;;;;4.70;1.40;;;5.50;99.90;;;;;;4991922;28;20516;-59
2022/02/10 20:17:16;;;;;;;7.40;1.75;;;5.50;99.90;;;;;;4997858;28;20557;-59
2022/02/10 20:19:43;;;;;;;3.78;1.65;;;5.50;99.90;;;;;;4987531;28;20431;-59
2022/02/10 20:22:12;;;;;;;4.43;1.73;;;5.50;99.90;;;;;;4998710;28;20065;-60
2022/02/10 20:24:39;;;;;;;3.40;1.75;;;5.40;99.90;;;;;;4995652;28;20140;-56
2022/02/10 20:27:06;;;;;;;4.00;1.30;;;5.40;99.90;;;;;;4986058;28;20484;-58
2022/02/10 20:29:33;;;;;;;2.47;1.38;;;5.40;99.90;;;;;;4987279;28;20058;-58
2022/02/10 20:32:01;;;;;;;2.72;1.35;;;5.30;99.90;;;;;;4990086;28;20152;-58
2022/02/10 20:34:30;;;;;;;2.97;1.35;;;5.30;99.90;;;;;;4999398;28;20137;-57
2022/02/10 20:36:58;;;;;;;6.45;1.92;;;5.30;99.90;;;;;;4983719;28;20088;-58
2022/02/10 20:39:28;;;;;;;4.10;1.90;;;5.30;99.90;;;;;;4999858;28;20141;-58
2022/02/10 20:42:03;;;;;;;3.53;1.48;;;5.30;99.90;;;;;;4997059;28;20092;-58
2022/02/10 20:44:30;;;;;;;4.75;1.75;;;5.30;99.90;;;;;;4993093;28;20164;-58
2022/02/10 20:46:58;;;;;;;3.15;1.60;;;5.30;99.90;;;;;;4984246;28;20176;-58
2022/02/10 20:49:27;;;;;;;4.05;1.45;;;5.30;99.90;;;;;;4979950;28;20596;-58
2022/02/10 20:51:55;;;;;;;3.65;2.15;;;5.20;99.90;;;;;;4987334;28;20144;-58
2022/02/10 20:54:22;;;;;;;4.65;2.05;;;5.20;99.90;;;;;;4997656;28;20476;-57
2022/02/10 20:56:50;;;;;;;4.10;1.80;;;5.10;99.90;;;;;;4999620;28;20145;-60
2022/02/10 21:01:58;;;;;;;3.00;1.58;;;5.10;99.90;;;;;;4999950;28;20052;-58
2022/02/10 21:04:30;;;;;;;2.67;1.45;;;5.00;99.90;;;;;;4999573;28;20058;-59
2022/02/10 21:07:03;;;;;;;3.72;1.40;;;5.00;99.90;;;;;;4999464;28;20565;-59
2022/02/10 21:09:39;;;;;;;3.55;1.90;;;5.00;99.90;;;;;;4999772;28;20255;-59
2022/02/10 21:12:09;;;;;;;2.50;1.35;;;5.00;99.90;;;;;;4999192;28;20100;-59
2022/02/10 21:14:36;;;;;;;5.15;1.70;;;5.00;99.90;;;;;;4997649;28;20165;-58
2022/02/10 21:17:09;;;;;;;4.90;1.80;;;5.00;99.90;;;;;;4999979;28;20046;-58
2022/02/10 21:19:37;;;;;;;3.92;1.40;;;4.90;99.90;;;;;;4997175;28;20128;-58
2022/02/10 21:22:08;;;;;;;5.43;2.22;;;4.90;99.90;;;;;;4997872;28;20133;-59
2022/02/10 21:24:39;;;;;;;3.55;1.98;;;4.90;99.90;;;;;;4997603;28;20173;-59
2022/02/10 21:29:33;;;;;;;7.78;2.15;;;4.90;99.90;;;;;;4998116;28;20267;-58
2022/02/10 21:32:01;;;;;;;5.60;2.20;;;4.80;99.90;;;;;;4998709;28;20156;-59
2022/02/10 21:34:33;;;;;;;4.70;1.98;;;4.80;99.90;;;;;;4998830;28;20524;-58
2022/02/10 21:37:10;;;;;;;4.72;2.10;;;4.70;99.90;;;;;;4998291;28;20077;-58
2022/02/10 21:39:54;;;;;;;4.60;1.90;;;4.70;99.90;;;;;;4998711;28;20088;-58
2022/02/10 22:07:40;;;;;;;7.07;1.77;;;4.50;99.90;;;;;;4978856;28;20589;-58
2022/02/10 22:20:54;;;;;;;5.78;2.10;;;4.30;99.90;;;;;;5000511;28;20353;-58
2022/02/10 22:23:25;;;;;;;3.30;1.40;;;4.30;99.90;;;;;;5001311;28;20085;-58
2022/02/10 22:25:57;;;;;;;5.78;1.95;;;4.30;99.90;;;;;;5002574;28;20169;-58
2022/02/10 22:28:36;;;;;;;6.00;2.30;;;4.30;99.90;;;;;;5000944;28;20137;-57
2022/02/10 22:31:20;;;;;;;4.82;1.88;;;4.30;99.90;;;;;;4999832;28;20571;-58
2022/02/10 22:36:16;;;;;;;4.82;1.95;;;4.20;99.90;;;;;;5001512;28;20073;-60
2022/02/10 22:38:43;;;;;;;5.50;1.88;;;4.20;99.90;;;;;;4984373;28;20533;-59
2022/02/10 22:41:12;;;;;;;3.75;1.65;;;4.20;99.90;;;;;;4998509;28;20141;-59
2022/02/10 22:43:40;;;;;;;6.32;1.67;;;4.20;99.90;;;;;;5000640;28;20092;-59
2022/02/10 22:46:07;;;;;;;3.20;1.15;;;4.10;99.90;;;;;;4993748;28;20057;-57
2022/02/10 22:48:34;;;;;;;2.30;1.20;;;4.10;99.90;;;;;;4996045;28;20133;-59
2022/02/10 22:51:01;;;;;;;5.25;1.65;;;4.10;99.90;;;;;;5001191;28;20130;-59
2022/02/10 22:53:33;;;;;;;2.95;1.40;;;4.00;99.90;;;;;;5001134;28;20085;-59
2022/02/10 22:56:00;;;;;;;3.58;1.50;;;4.00;99.90;;;;;;5003986;28;20052;-59
2022/02/10 22:58:28;;;;;;;4.68;1.95;;;4.00;99.90;;;;;;4999161;28;20038;-59
2022/02/10 23:00:54;;;;;;;4.85;1.70;;;4.00;99.90;;;;;;5000861;28;20133;-59
2022/02/10 23:03:23;;;;;;;5.13;1.58;;;4.00;99.90;;;;;;5001684;28;20038;-59
2022/02/10 23:05:50;;;;;;;4.78;1.40;;;4.00;99.90;;;;;;5002076;28;20149;-59
2022/02/10 23:08:18;;;;;;;2.90;1.42;;;4.00;99.90;;;;;;5000570;28;20569;-59
2022/02/10 23:10:47;;;;;;;4.10;1.30;;;3.90;99.90;;;;;;5000603;28;20585;-59
2022/02/10 23:13:18;;;;;;;3.85;1.27;;;3.90;99.90;;;;;;4997299;28;20101;-59
2022/02/10 23:15:45;;;;;;;3.95;1.35;;;3.90;99.90;;;;;;5001073;28;20649;-59
2022/02/10 23:18:22;;;;;;;3.40;1.55;;;3.90;99.90;;;;;;5001796;28;20458;-60
2022/02/10 23:20:49;;;;;;;2.75;1.35;;;3.90;99.90;;;;;;4997734;28;20137;-59
2022/02/10 23:23:18;;;;;;;2.30;1.05;;;3.80;99.90;;;;;;4989007;28;20244;-59
2022/02/10 23:25:45;;;;;;;3.97;1.60;;;3.80;99.90;;;;;;5000625;28;20092;-58
2022/02/10 23:28:14;;;;;;;2.65;1.38;;;3.80;99.90;;;;;;5002406;28;20125;-59
2022/02/10 23:30:45;;;;;;;4.15;1.67;;;3.80;99.90;;;;;;4998940;28;20294;-59
2022/02/10 23:33:26;;;;;;;3.83;1.27;;;3.80;99.90;;;;;;5002750;28;20157;-59
2022/02/10 23:38:42;;;;;;;2.05;1.30;;;3.80;99.90;;;;;;5002537;28;20085;-60
2022/02/10 23:43:36;;;;;;;4.57;1.20;;;3.70;99.90;;;;;;4991120;28;20409;-59
2022/02/10 23:46:03;;;;;;;4.53;1.83;;;3.70;99.90;;;;;;5002700;28;20116;-59
2022/02/10 23:48:32;;;;;;;3.00;1.23;;;3.70;99.90;;;;;;5002336;28;20072;-59
2022/02/10 23:50:59;;;;;;;2.25;0.80;;;3.60;99.90;;;;;;4994149;28;20152;-59
2022/02/10 23:53:27;;;;;;;4.25;1.42;;;3.60;99.90;;;;;;5001203;28;20562;-59
2022/02/10 23:55:55;;;;;;;3.88;1.45;;;3.60;99.90;;;;;;4998712;28;20136;-59
